Huvudsida
METAR-TAF:

METAR-TAF

Flygplatser :

Nouakchotts flygplats

Nouakchott, Mauretanien

latitud: 18-18-36N, longitud: 015-58-11W, höjd: 3 m

Aktuellt väderrapport

Denna rapport gjordes för 43 minuter sedan, klockan 01:00 UTC
Vind 8 kt från ost/nordost
Temperatur 20°C
Fuktighet 18%
Tryck 1016 hPa
Sikt: 4000 m
högt damm drev

METAR: GQNO 190100Z 06008KT 4000 BLDU NSC 20/M05 Q1016 NOSIG

Tid: 01:43 (01:43 UTC)

Väderprognos

Denna rapport gjordes för 2 timmar och 43 minuter sedan, klockan 23:00 UTC
Prognos gäller från 19 kl. 00 UTC till 20 kl. 06 UTC
Vind 6 kt från nordost
Sikt: 4000 m
högt damm drev
Blir
från 19 kl. 07 UTC till 19 kl. 09 UTC
Vind 16 kt från ost
Temporärt
från 19 kl. 10 UTC till 19 kl. 16 UTC
Sikt: 2500 m
högt damm drev
Blir
från 19 kl. 18 UTC till 19 kl. 20 UTC
Vind 10 kt från nordost
Sikt: 6000 m

TAF: GQNO 182300Z 1900/2006 05006KT 4000 BLDU NSC BECMG 1907/1909 10016KT TEMPO 1910/1916 2500 BLDU BECMG 1918/1920 04010KT 6000 NSW

Aktuella väderrapporter och prognoser från 4000 flygplatser (METAR- och TAF-rapporter).

De tillgängliga stationerna syns som gula och röda prickar på kartan.

För musen över prickarna för att se namnen på stationerna.

Klicka sedan för att få väderrapporter och prognoser.

För att ändra kartan: Klicka på de gröna knapparna med ett svart kors på för att zooma in; den gröna knappen med ett streck på för att zooma ut; eller på de gröna pilarna för angränsande kartor.


METAR-TAF: